Terminal Aerodrome Forecast
Issued by NWS Wichita, KS

Home | Current Version | Previous Version | Graphics & Text | Print | Product List | Glossary On
Versions: 1 2 3 4 5 6 7 8 9 10 11 12 13
000
FTUS43 KICT 011037 AAB
TAFICT
TAF AMD
KICT 011037Z 0111/0206 16004KT P6SM SKC
      TEMPO 0111/0113 4SM BR
     FM011500 18011KT P6SM SCT045 SCT250
     FM020300 16008KT P6SM SCT050 SCT200=

USA.gov is the U.S. government's official web portal to all federal, state and local government web resources and services.